createdAt,value
2022-12-07T00:01:47.310Z,99840.31
2022-12-07T00:04:18.602Z,99833.50
2022-12-07T00:06:51.135Z,99845.81
2022-12-07T00:09:20.627Z,99834.81
2022-12-07T00:11:52.742Z,99838.41
2022-12-07T00:14:21.923Z,99825.53
2022-12-07T00:16:52.154Z,99836.66
2022-12-07T00:19:20.909Z,99825.44
2022-12-07T00:21:49.137Z,99817.72
2022-12-07T00:24:17.466Z,99817.94
2022-12-07T00:26:46.395Z,99810.87
2022-12-07T00:29:23.491Z,99816.19
2022-12-07T00:31:52.059Z,99808.97
2022-12-07T00:34:21.733Z,99808.97
2022-12-07T00:36:51.116Z,99802.06
2022-12-07T00:39:19.450Z,99803.09
2022-12-07T00:41:47.769Z,99809.44
2022-12-07T00:44:15.947Z,99805.59
2022-12-07T00:46:46.320Z,99810.19
2022-12-07T00:49:14.919Z,99815.44
2022-12-07T00:51:43.118Z,99812.56
2022-12-07T00:54:11.459Z,99803.03
2022-12-07T00:56:39.607Z,99809.34
2022-12-07T00:59:08.201Z,99818.50
2022-12-07T01:01:38.037Z,99804.16
2022-12-07T01:04:06.821Z,99809.69
2022-12-07T01:06:35.662Z,99814.56
2022-12-07T01:09:04.915Z,99806.41
2022-12-07T01:11:33.571Z,99818.50
2022-12-07T01:14:02.284Z,99817.59
2022-12-07T01:16:32.082Z,99795.13
2022-12-07T01:19:01.464Z,99801.47
2022-12-07T01:21:35.894Z,99788.63
2022-12-07T01:24:06.891Z,99795.87
2022-12-07T01:26:35.123Z,99796.88
2022-12-07T01:29:03.454Z,99799.22
2022-12-07T01:31:31.943Z,99789.19
2022-12-07T01:34:00.935Z,99794.09
2022-12-07T01:36:35.219Z,99780.97
2022-12-07T01:39:06.893Z,99797.59
2022-12-07T01:41:40.408Z,99783.84
2022-12-07T01:44:25.915Z,99790.09
2022-12-07T01:46:57.001Z,99794.03
2022-12-07T01:49:34.431Z,99786.75
2022-12-07T01:52:37.325Z,99787.84
2022-12-07T01:55:09.593Z,99798.91
2022-12-07T01:57:42.320Z,99781.81
2022-12-07T02:00:12.027Z,99792.81
2022-12-07T02:02:48.925Z,99780.84
2022-12-07T02:05:18.426Z,99787.84
2022-12-07T02:07:48.366Z,99781.94
2022-12-07T02:10:20.903Z,99780.41
2022-12-07T02:12:59.398Z,99789.25
2022-12-07T02:15:42.548Z,99786.59
2022-12-07T02:18:22.509Z,99780.09
2022-12-07T02:21:09.773Z,99790.19
2022-12-07T02:23:46.295Z,99790.00
2022-12-07T02:26:28.787Z,99781.97
2022-12-07T02:29:08.807Z,99780.37
2022-12-07T02:31:41.537Z,99777.38
2022-12-07T02:34:20.479Z,99767.41
2022-12-07T02:36:57.997Z,99767.72
2022-12-07T02:39:38.458Z,99765.69
2022-12-07T02:42:24.659Z,99772.66
2022-12-07T02:44:53.488Z,99773.78
2022-12-07T02:47:24.907Z,99766.50
2022-12-07T02:49:53.776Z,99764.75
2022-12-07T02:52:21.925Z,99758.25
2022-12-07T02:54:50.126Z,99764.66
2022-12-07T02:57:52.438Z,99766.19
2022-12-07T03:00:21.942Z,99768.69
2022-12-07T03:03:05.203Z,99773.94
2022-12-07T03:05:53.158Z,99762.81
2022-12-07T03:08:33.683Z,99771.25
2022-12-07T03:11:06.388Z,99766.13
2022-12-07T03:13:54.000Z,99763.53
2022-12-07T03:16:34.779Z,99763.94
2022-12-07T03:19:18.315Z,99759.09
2022-12-07T03:21:52.461Z,99765.59
2022-12-07T03:24:25.686Z,99770.72
2022-12-07T03:27:00.646Z,99764.41
2022-12-07T03:29:35.837Z,99772.06
2022-12-07T03:32:17.197Z,99773.69
2022-12-07T03:35:04.369Z,99767.84
2022-12-07T03:37:38.937Z,99773.09
2022-12-07T03:40:24.684Z,99773.91
2022-12-07T03:42:53.118Z,99775.56
2022-12-07T03:45:31.084Z,99777.59
2022-12-07T03:48:15.427Z,99770.34
2022-12-07T03:50:53.723Z,99778.97
2022-12-07T03:53:31.328Z,99785.97
2022-12-07T03:56:01.090Z,99769.19
2022-12-07T03:58:30.751Z,99773.50
2022-12-07T04:00:59.245Z,99764.25
2022-12-07T04:03:27.758Z,99774.59
2022-12-07T04:05:56.232Z,99774.59
2022-12-07T04:08:24.412Z,99771.22
2022-12-07T04:10:52.903Z,99779.03
2022-12-07T04:13:21.155Z,99781.59
2022-12-07T04:15:49.232Z,99777.19
2022-12-07T04:18:18.603Z,99773.56
2022-12-07T04:20:47.644Z,99766.38
2022-12-07T04:23:15.698Z,99774.47
2022-12-07T04:25:44.330Z,99775.38
2022-12-07T04:28:13.021Z,99770.34
2022-12-07T04:30:41.042Z,99780.34
2022-12-07T04:33:10.049Z,99763.97
2022-12-07T04:35:38.519Z,99770.16
2022-12-07T04:38:07.332Z,99762.00
2022-12-07T04:40:36.185Z,99764.94
2022-12-07T04:43:05.779Z,99768.78
2022-12-07T04:45:33.871Z,99768.72
2022-12-07T04:48:02.699Z,99758.50
2022-12-07T04:50:30.844Z,99758.69
2022-12-07T04:52:58.952Z,99758.00
2022-12-07T04:55:27.616Z,99752.66
2022-12-07T04:57:56.038Z,99770.25
2022-12-07T05:00:24.011Z,99757.50
2022-12-07T05:02:52.589Z,99744.03
2022-12-07T05:05:20.775Z,99754.81
2022-12-07T05:07:48.976Z,99749.69
2022-12-07T05:10:17.706Z,99758.34
2022-12-07T05:12:46.840Z,99753.00
2022-12-07T05:15:16.673Z,99743.09
2022-12-07T05:17:45.372Z,99753.38
2022-12-07T05:20:16.753Z,99749.69
2022-12-07T05:22:45.188Z,99757.31
2022-12-07T05:25:13.419Z,99762.72
2022-12-07T05:27:41.470Z,99751.09
2022-12-07T05:30:10.702Z,99761.47
2022-12-07T05:32:38.998Z,99754.12
2022-12-07T05:35:07.549Z,99750.94
2022-12-07T05:37:36.071Z,99751.25
2022-12-07T05:40:05.815Z,99743.16
2022-12-07T05:42:33.904Z,99754.88
2022-12-07T05:45:02.452Z,99746.06
2022-12-07T05:47:30.864Z,99751.84
2022-12-07T05:49:59.128Z,99755.88
2022-12-07T05:52:27.702Z,99757.37
2022-12-07T05:54:55.980Z,99753.91
2022-12-07T05:57:23.983Z,99758.84
2022-12-07T05:59:52.346Z,99758.13
2022-12-07T06:02:20.780Z,99761.50
2022-12-07T06:04:49.392Z,99759.59
2022-12-07T06:07:18.028Z,99762.34
2022-12-07T06:09:48.456Z,99759.78
2022-12-07T06:12:35.066Z,99763.72
2022-12-07T06:15:03.511Z,99763.31
2022-12-07T06:17:31.850Z,99762.59
2022-12-07T06:20:00.170Z,99763.94
2022-12-07T06:22:28.945Z,99762.94
2022-12-07T06:24:57.360Z,99761.06
2022-12-07T06:27:25.428Z,99760.69
2022-12-07T06:29:53.603Z,99764.06
2022-12-07T06:32:21.933Z,99777.03
2022-12-07T06:34:49.964Z,99773.53
2022-12-07T06:37:18.083Z,99775.19
2022-12-07T06:39:46.877Z,99773.34
2022-12-07T06:42:15.022Z,99770.22
2022-12-07T06:44:43.205Z,99776.00
2022-12-07T06:47:39.656Z,99772.81
2022-12-07T06:50:01.123Z,99785.28
2022-12-07T06:52:30.095Z,99774.91
2022-12-07T06:54:58.226Z,99773.88
2022-12-07T06:57:27.207Z,99772.31
2022-12-07T06:59:55.651Z,99777.16
2022-12-07T11:55:34.771Z,99724.19
2022-12-07T11:58:56.968Z,99717.28
2022-12-07T12:02:21.052Z,99706.88
2022-12-07T12:05:28.532Z,99701.84
2022-12-07T12:15:22.197Z,99688.63
2022-12-07T12:18:44.202Z,99690.06
2022-12-07T12:21:55.514Z,99687.59
2022-12-07T12:24:52.947Z,99684.78
2022-12-07T12:28:06.900Z,99683.94
2022-12-07T12:31:09.923Z,99678.38
2022-12-07T12:34:43.052Z,99664.13
2022-12-07T12:37:35.964Z,99676.13
2022-12-07T12:40:47.039Z,99677.25
2022-12-07T12:43:50.332Z,99673.59
2022-12-07T12:47:06.111Z,99667.63
2022-12-07T12:50:34.731Z,99677.66
2022-12-07T12:53:38.279Z,99678.59
2022-12-07T12:56:43.939Z,99672.00
2022-12-07T12:59:55.219Z,99692.06
2022-12-07T13:02:55.601Z,99690.09
2022-12-07T13:06:21.522Z,99684.59
2022-12-07T13:09:31.137Z,99686.84
2022-12-07T13:12:34.339Z,99683.78
2022-12-07T13:15:51.113Z,99690.94
2022-12-07T13:18:57.076Z,99688.72
2022-12-07T13:21:48.950Z,99688.28
2022-12-07T13:24:57.769Z,99683.47
2022-12-07T13:28:10.931Z,99691.94
2022-12-07T13:31:37.055Z,99685.34
2022-12-07T13:34:47.935Z,99694.78
2022-12-07T13:37:45.835Z,99698.66
2022-12-07T13:41:19.315Z,99703.09
2022-12-07T13:47:45.399Z,99713.09
2022-12-07T13:50:36.544Z,99717.19
2022-12-07T13:53:48.494Z,99717.63
2022-12-07T13:56:40.752Z,99712.34
2022-12-07T13:59:44.205Z,99719.97
2022-12-07T14:03:01.697Z,99721.25
2022-12-07T14:06:18.852Z,99719.94
2022-12-07T14:09:24.187Z,99711.16
2022-12-07T14:12:30.587Z,99723.12
2022-12-07T14:15:37.047Z,99723.53
2022-12-07T14:18:42.247Z,99716.44
2022-12-07T14:22:09.933Z,99730.50
2022-12-07T14:25:31.851Z,99727.28
2022-12-07T14:28:37.564Z,99726.13
2022-12-07T14:31:43.313Z,99722.62
2022-12-07T14:34:59.768Z,99727.13
2022-12-07T14:37:57.424Z,99715.91
2022-12-07T14:41:34.691Z,99718.91
2022-12-07T14:44:35.479Z,99723.69
2022-12-07T14:50:38.083Z,99733.34
2022-12-07T14:53:57.356Z,99724.41
2022-12-07T14:56:56.986Z,99727.50
2022-12-07T15:00:37.812Z,99727.44
2022-12-07T15:03:36.209Z,99746.97
2022-12-07T15:06:57.736Z,99746.38
2022-12-07T15:09:50.998Z,99738.69
2022-12-07T15:12:57.263Z,99741.19
2022-12-07T15:16:01.434Z,99735.44
2022-12-07T15:19:26.768Z,99746.78
2022-12-07T15:22:03.891Z,99746.34
2022-12-07T15:24:59.396Z,99751.63
2022-12-07T15:28:04.326Z,99750.03
2022-12-07T15:30:56.268Z,99755.00
2022-12-07T15:34:05.194Z,99754.59
2022-12-07T15:36:57.614Z,99755.72
2022-12-07T15:40:14.545Z,99763.00
2022-12-07T15:43:05.791Z,99765.28
2022-12-07T15:46:09.538Z,99773.78
2022-12-07T15:49:01.125Z,99775.66
2022-12-07T15:51:55.694Z,99760.81
2022-12-07T15:54:58.678Z,99760.19
2022-12-07T15:57:50.857Z,99760.47
2022-12-07T16:00:53.753Z,99752.28
2022-12-07T16:04:02.337Z,99759.91
2022-12-07T16:06:55.053Z,99767.06
2022-12-07T16:10:03.664Z,99766.50
2022-12-07T16:12:54.332Z,99769.78
2022-12-07T16:15:57.677Z,99772.13
2022-12-07T16:18:52.386Z,99766.75
2022-12-07T16:22:11.395Z,99770.25
2022-12-07T16:25:07.819Z,99769.56
2022-12-07T16:28:15.889Z,99774.19
2022-12-07T16:31:27.258Z,99774.63
2022-12-07T16:34:34.709Z,99778.50
2022-12-07T16:37:28.573Z,99776.03
2022-12-07T16:40:31.793Z,99773.66
2022-12-07T16:43:22.407Z,99771.16
2022-12-07T16:46:26.088Z,99772.09
2022-12-07T16:49:17.705Z,99776.50
2022-12-07T16:52:24.274Z,99771.25
2022-12-07T16:55:16.537Z,99777.50
2022-12-07T16:58:20.960Z,99786.59
2022-12-07T17:01:24.338Z,99773.88
2022-12-07T17:04:29.507Z,99789.09
2022-12-07T17:07:32.985Z,99785.66
2022-12-07T17:10:25.759Z,99787.31
2022-12-07T17:13:49.721Z,99789.78
2022-12-07T17:16:49.875Z,99776.12
2022-12-07T17:19:55.445Z,99778.31
2022-12-07T17:22:51.991Z,99790.88
2022-12-07T17:25:56.597Z,99774.94
2022-12-07T17:29:09.714Z,99778.72
2022-12-07T17:32:23.796Z,99777.88
2022-12-07T17:35:14.703Z,99792.28
2022-12-07T17:38:08.181Z,99794.31
2022-12-07T17:41:39.025Z,99797.06
2022-12-07T17:44:30.569Z,99799.16
2022-12-07T17:47:24.840Z,99809.41
2022-12-07T17:50:46.572Z,99805.28
2022-12-07T17:53:41.151Z,99807.22
2022-12-07T17:56:45.761Z,99810.81
2022-12-07T17:59:52.361Z,99801.91
2022-12-07T18:02:56.571Z,99812.94
2022-12-07T18:06:02.668Z,99810.78
2022-12-07T18:09:09.127Z,99813.59
2022-12-07T18:12:13.480Z,99815.31
2022-12-07T18:15:22.608Z,99809.03
2022-12-07T18:18:13.666Z,99808.13
2022-12-07T18:21:24.160Z,99808.31
2022-12-07T18:24:17.799Z,99802.81
2022-12-07T18:27:21.538Z,99806.31
2022-12-07T18:30:13.104Z,99810.63
2022-12-07T18:33:21.873Z,99813.84
2022-12-07T18:36:14.723Z,99822.91
2022-12-07T18:39:22.509Z,99811.00
2022-12-07T18:42:18.978Z,99818.25
2022-12-07T18:45:27.957Z,99818.50
2022-12-07T18:48:21.157Z,99817.03
2022-12-07T18:51:32.302Z,99809.41
2022-12-07T18:54:31.347Z,99817.22
2022-12-07T18:57:43.797Z,99808.16
2022-12-07T19:00:56.076Z,99824.66
2022-12-07T19:04:06.121Z,99816.03
2022-12-07T19:06:59.455Z,99827.69
2022-12-07T19:10:08.093Z,99831.44
2022-12-07T19:13:12.911Z,99830.88
2022-12-07T19:16:10.244Z,99826.91
2022-12-07T19:19:13.904Z,99832.19
2022-12-07T19:22:22.994Z,99830.47
2022-12-07T19:25:26.678Z,99821.91
2022-12-07T19:28:17.475Z,99829.75
2022-12-07T19:31:29.177Z,99833.37
2022-12-07T19:34:39.389Z,99837.84
2022-12-07T19:37:36.676Z,99826.94
2022-12-07T19:40:49.503Z,99823.53
2022-12-07T19:43:51.697Z,99821.44
2022-12-07T19:47:04.057Z,99824.50
2022-12-07T19:49:52.234Z,99815.31
2022-12-07T19:52:56.366Z,99818.87
2022-12-07T19:55:48.177Z,99815.31
2022-12-07T19:58:51.848Z,99825.66
2022-12-07T20:01:46.729Z,99822.53
2022-12-07T20:04:54.789Z,99817.16
2022-12-07T20:07:57.725Z,99826.25
2022-12-07T20:11:28.027Z,99827.44
2022-12-07T20:14:27.986Z,99835.97
2022-12-07T20:17:37.695Z,99836.00
2022-12-07T20:20:36.815Z,99839.81
2022-12-07T20:23:42.187Z,99831.16
2022-12-07T20:26:54.828Z,99834.78
2022-12-07T20:29:47.313Z,99839.16
2022-12-07T20:33:05.958Z,99840.87
2022-12-07T20:36:05.400Z,99839.56
2022-12-07T20:39:09.534Z,99838.66
2022-12-07T20:42:18.775Z,99847.53
2022-12-07T20:45:21.590Z,99851.78
2022-12-07T20:48:12.128Z,99848.87
2022-12-07T20:51:16.159Z,99842.25
2022-12-07T20:54:07.410Z,99852.72
2022-12-07T20:57:11.017Z,99851.47
2022-12-07T21:00:02.564Z,99849.09
2022-12-07T21:03:12.810Z,99859.56
2022-12-07T21:06:04.256Z,99858.72
2022-12-07T21:09:26.955Z,99856.09
2022-12-07T21:12:21.803Z,99855.97
2022-12-07T21:15:26.015Z,99850.41
2022-12-07T21:18:17.115Z,99867.03
2022-12-07T21:21:20.905Z,99865.47
2022-12-07T21:24:26.328Z,99867.25
2022-12-07T21:27:24.197Z,99868.03
2022-12-07T21:30:20.802Z,99868.09
2022-12-07T21:33:24.254Z,99861.16
2022-12-07T21:36:35.600Z,99866.28
2022-12-07T21:39:28.191Z,99855.84
2022-12-07T21:42:36.077Z,99855.69
2022-12-07T21:45:33.202Z,99873.03
2022-12-07T21:49:03.527Z,99869.78
2022-12-07T21:52:08.082Z,99866.72
2022-12-07T21:55:35.393Z,99857.44
2022-12-07T21:58:39.077Z,99860.75
2022-12-07T22:02:23.779Z,99864.41
2022-12-07T22:06:10.095Z,99863.06
2022-12-07T22:12:58.064Z,99869.78
2022-12-07T22:16:44.317Z,99875.66
2022-12-07T22:19:33.891Z,99873.50
2022-12-07T22:27:25.935Z,99857.50
2022-12-07T22:30:29.670Z,99857.00
2022-12-07T22:33:43.711Z,99858.66
2022-12-07T22:36:53.569Z,99850.72
2022-12-07T22:39:47.177Z,99839.47
2022-12-07T22:42:54.336Z,99849.41
2022-12-07T22:46:11.355Z,99842.63
2022-12-07T22:49:16.387Z,99852.72
2022-12-07T22:52:02.966Z,99846.88
2022-12-07T22:55:13.864Z,99846.41
2022-12-07T22:58:26.604Z,99847.44
2022-12-07T23:01:24.891Z,99836.59
2022-12-07T23:04:40.783Z,99835.94
2022-12-07T23:07:20.052Z,99836.94
2022-12-07T23:10:05.320Z,99834.37
2022-12-07T23:13:22.367Z,99842.91
2022-12-07T23:16:09.952Z,99848.66
2022-12-07T23:19:12.993Z,99843.22
2022-12-07T23:21:55.866Z,99843.78
2022-12-07T23:24:27.155Z,99835.44
2022-12-07T23:27:06.412Z,99837.41
2022-12-07T23:29:38.777Z,99838.69
2022-12-07T23:32:57.301Z,99837.41
2022-12-07T23:36:31.280Z,99849.56
2022-12-07T23:39:52.128Z,99846.50
2022-12-07T23:43:17.733Z,99849.88
2022-12-07T23:46:27.605Z,99863.13
2022-12-07T23:56:37.285Z,99847.00
2022-12-07T23:59:27.617Z,99855.97
